createdAt,value
2022-12-26T00:02:02.097Z,11.27
2022-12-26T00:04:52.182Z,11.26
2022-12-26T00:07:23.798Z,11.27
2022-12-26T00:09:53.000Z,11.27
2022-12-26T00:12:21.678Z,11.27
2022-12-26T00:14:51.808Z,11.28
2022-12-26T00:17:22.117Z,11.27
2022-12-26T00:19:53.699Z,11.28
2022-12-26T00:22:22.690Z,11.28
2022-12-26T00:24:51.599Z,11.28
2022-12-26T00:27:23.719Z,11.28
2022-12-26T00:29:53.529Z,11.28
2022-12-26T00:32:24.276Z,11.29
2022-12-26T00:34:55.232Z,11.30
2022-12-26T00:37:24.092Z,11.32
2022-12-26T00:39:54.368Z,11.32
2022-12-26T00:42:24.254Z,11.33
2022-12-26T00:44:53.946Z,11.33
2022-12-26T00:47:22.982Z,11.35
2022-12-26T00:50:13.482Z,11.33
2022-12-26T00:52:43.126Z,11.34
2022-12-26T00:55:12.221Z,11.33
2022-12-26T00:57:42.361Z,11.34
2022-12-26T01:00:13.256Z,11.34
2022-12-26T01:02:43.051Z,11.33
2022-12-26T01:05:13.748Z,11.34
2022-12-26T01:08:20.348Z,11.33
2022-12-26T01:10:35.143Z,11.33
2022-12-26T01:13:04.725Z,11.33
2022-12-26T01:15:33.790Z,11.34
2022-12-26T01:18:04.106Z,11.33
2022-12-26T01:20:35.356Z,11.31
2022-12-26T01:23:06.679Z,11.30
2022-12-26T01:25:35.581Z,11.29
2022-12-26T01:28:05.472Z,11.29
2022-12-26T01:30:35.987Z,11.28
2022-12-26T01:33:05.758Z,11.27
2022-12-26T01:35:35.436Z,11.26
2022-12-26T01:38:06.645Z,11.25
2022-12-26T01:40:36.052Z,11.23
2022-12-26T01:43:04.574Z,11.23
2022-12-26T01:45:34.481Z,11.22
2022-12-26T01:48:07.361Z,11.21
2022-12-26T01:50:43.593Z,11.20
2022-12-26T01:53:17.175Z,11.19
2022-12-26T01:55:52.261Z,11.19
2022-12-26T01:58:26.874Z,11.18
2022-12-26T02:01:01.957Z,11.19
2022-12-26T02:03:51.311Z,11.17
2022-12-26T02:06:20.262Z,11.17
2022-12-26T02:08:52.560Z,11.17
2022-12-26T02:11:27.366Z,11.16
2022-12-26T02:13:58.149Z,11.16
2022-12-26T02:16:27.942Z,11.16
2022-12-26T02:18:57.064Z,11.16
2022-12-26T02:21:57.585Z,11.13
2022-12-26T02:24:53.513Z,11.13
2022-12-26T02:27:48.713Z,11.14
2022-12-26T02:30:34.602Z,11.14
2022-12-26T02:33:21.078Z,11.13
2022-12-26T02:36:15.249Z,11.13
2022-12-26T02:38:55.781Z,11.13
2022-12-26T02:41:31.135Z,11.13
2022-12-26T02:44:28.411Z,11.12
2022-12-26T02:47:11.014Z,11.11
2022-12-26T02:50:22.720Z,11.12
2022-12-26T02:53:22.355Z,11.12
2022-12-26T02:56:14.482Z,11.11
2022-12-26T02:59:18.239Z,11.12
2022-12-26T03:02:09.000Z,11.13
2022-12-26T03:05:08.193Z,11.14
2022-12-26T03:08:00.723Z,11.14
2022-12-26T03:10:52.233Z,11.13
2022-12-26T03:13:28.251Z,11.13
2022-12-26T03:16:19.805Z,11.14
2022-12-26T03:18:58.097Z,11.15
2022-12-26T03:21:36.023Z,11.14
2022-12-26T03:24:06.704Z,11.13
2022-12-26T03:26:41.100Z,11.11
2022-12-26T03:29:30.304Z,11.11
2022-12-26T03:32:07.890Z,11.09
2022-12-26T03:34:43.217Z,11.08
2022-12-26T03:37:48.380Z,11.06
2022-12-26T03:40:55.299Z,11.04
2022-12-26T03:43:58.888Z,11.01
2022-12-26T03:47:00.145Z,10.99
2022-12-26T03:49:49.686Z,10.97
2022-12-26T03:52:47.134Z,10.96
2022-12-26T03:55:42.488Z,10.94
2022-12-26T03:58:39.648Z,10.91
2022-12-26T04:01:33.600Z,10.90
2022-12-26T04:04:26.428Z,10.89
2022-12-26T04:07:32.769Z,10.86
2022-12-26T04:10:27.130Z,10.83
2022-12-26T04:13:17.338Z,10.80
2022-12-26T04:16:08.346Z,10.77
2022-12-26T04:19:01.739Z,10.75
2022-12-26T04:21:55.761Z,10.72
2022-12-26T04:24:48.874Z,10.70
2022-12-26T04:27:40.243Z,10.69
2022-12-26T04:30:29.246Z,10.65
2022-12-26T04:33:25.843Z,10.63
2022-12-26T04:36:18.211Z,10.61
2022-12-26T04:39:12.836Z,10.57
2022-12-26T04:42:01.599Z,10.55
2022-12-26T04:44:31.702Z,10.52
2022-12-26T04:47:02.292Z,10.52
2022-12-26T04:49:49.333Z,10.51
2022-12-26T04:52:21.617Z,10.50
2022-12-26T04:54:52.473Z,10.50
2022-12-26T04:57:22.759Z,10.50
2022-12-26T04:59:52.126Z,10.49
2022-12-26T05:02:39.371Z,10.51
2022-12-26T05:05:28.122Z,10.50
2022-12-26T05:08:14.769Z,10.48
2022-12-26T05:10:45.153Z,10.50
2022-12-26T05:13:14.968Z,10.50
2022-12-26T05:15:59.473Z,10.50
2022-12-26T05:18:51.707Z,10.51
2022-12-26T05:21:38.963Z,10.51
2022-12-26T05:24:29.153Z,10.51
2022-12-26T05:27:23.287Z,10.50
2022-12-26T05:29:52.458Z,10.50
2022-12-26T05:32:38.882Z,10.50
2022-12-26T05:35:11.724Z,10.50
2022-12-26T05:37:41.780Z,10.50
2022-12-26T05:40:11.674Z,10.50
2022-12-26T05:42:40.609Z,10.48
2022-12-26T05:45:10.833Z,10.47
2022-12-26T05:47:40.718Z,10.48
2022-12-26T05:50:19.151Z,10.49
2022-12-26T05:52:58.890Z,10.46
2022-12-26T05:55:29.408Z,10.46
2022-12-26T05:58:02.326Z,10.45
2022-12-26T06:00:32.431Z,10.45
2022-12-26T06:03:02.318Z,10.45
2022-12-26T06:05:33.618Z,10.45
2022-12-26T06:08:03.744Z,10.44
2022-12-26T06:10:32.904Z,10.45
2022-12-26T06:13:05.375Z,10.45
2022-12-26T06:15:34.803Z,10.45
2022-12-26T06:18:04.579Z,10.45
2022-12-26T06:20:35.915Z,10.44
2022-12-26T06:23:09.281Z,10.45
2022-12-26T06:25:39.345Z,10.43
2022-12-26T06:28:09.774Z,10.44
2022-12-26T06:30:38.912Z,10.43
2022-12-26T06:33:14.932Z,10.43
2022-12-26T06:35:52.203Z,10.44
2022-12-26T06:38:21.289Z,10.45
2022-12-26T06:40:53.382Z,10.45
2022-12-26T06:43:23.482Z,10.45
2022-12-26T06:45:59.298Z,10.45
2022-12-26T06:48:29.322Z,10.45
2022-12-26T06:51:08.790Z,10.46
2022-12-26T06:53:42.075Z,10.46
2022-12-26T06:56:14.388Z,10.46
2022-12-26T06:58:45.460Z,10.47
2022-12-26T07:01:19.589Z,10.47
2022-12-26T07:03:59.508Z,10.47
2022-12-26T07:06:39.031Z,10.46
2022-12-26T07:09:14.623Z,10.46
2022-12-26T07:11:46.515Z,10.46
2022-12-26T07:14:19.634Z,10.46
2022-12-26T07:16:49.149Z,10.48
2022-12-26T07:19:18.508Z,10.48
2022-12-26T07:21:54.663Z,10.48
2022-12-26T07:24:27.061Z,10.49
2022-12-26T07:26:58.842Z,10.50
2022-12-26T07:29:28.965Z,10.51
2022-12-26T07:32:04.753Z,10.51
2022-12-26T07:34:38.735Z,10.52
2022-12-26T07:37:10.626Z,10.53
2022-12-26T07:39:40.968Z,10.54
2022-12-26T07:42:11.265Z,10.53
2022-12-26T07:44:43.276Z,10.53
2022-12-26T07:47:12.085Z,10.53
2022-12-26T07:49:41.601Z,10.54
2022-12-26T07:52:12.501Z,10.52
2022-12-26T07:54:41.687Z,10.51
2022-12-26T07:57:46.847Z,10.52
2022-12-26T08:00:10.972Z,10.52
2022-12-26T08:02:43.701Z,10.52
2022-12-26T08:05:24.502Z,10.52
2022-12-26T08:08:01.055Z,10.52
2022-12-26T08:10:32.871Z,10.52
2022-12-26T08:13:02.103Z,10.52
2022-12-26T08:15:31.577Z,10.53
2022-12-26T08:18:01.589Z,10.53
2022-12-26T08:20:31.307Z,10.52
2022-12-26T08:23:02.434Z,10.53
2022-12-26T08:25:35.637Z,10.53
2022-12-26T08:28:04.388Z,10.51
2022-12-26T08:30:33.446Z,10.51
2022-12-26T08:33:02.992Z,10.51
2022-12-26T08:35:35.402Z,10.50
2022-12-26T08:38:09.311Z,10.50
2022-12-26T08:40:43.960Z,10.49
2022-12-26T08:43:39.155Z,10.50
2022-12-26T08:46:08.369Z,10.50
2022-12-26T08:48:40.498Z,10.50
2022-12-26T08:51:15.329Z,10.49
2022-12-26T08:53:49.747Z,10.48
2022-12-26T08:56:21.845Z,10.49
2022-12-26T08:58:52.014Z,10.49
2022-12-26T09:01:23.577Z,10.48
2022-12-26T09:03:54.278Z,10.46
2022-12-26T09:06:23.289Z,10.47
2022-12-26T09:08:54.468Z,10.47
2022-12-26T09:11:26.856Z,10.45
2022-12-26T09:14:01.666Z,10.46
2022-12-26T09:16:37.739Z,10.48
2022-12-26T09:19:08.003Z,10.48
2022-12-26T09:21:37.543Z,10.48
2022-12-26T09:24:13.109Z,10.48
2022-12-26T09:26:43.431Z,10.46
2022-12-26T09:29:13.150Z,10.48
2022-12-26T09:31:41.593Z,10.48
2022-12-26T09:34:13.973Z,10.48
2022-12-26T09:36:42.923Z,10.48
2022-12-26T09:39:14.151Z,10.49
2022-12-26T09:42:03.099Z,10.50
2022-12-26T09:44:47.392Z,10.48
2022-12-26T09:47:31.595Z,10.48
2022-12-26T09:50:05.421Z,10.50
2022-12-26T09:52:42.121Z,10.51
2022-12-26T09:55:27.229Z,10.52
2022-12-26T09:58:01.649Z,10.51
2022-12-26T10:00:39.508Z,10.52
2022-12-26T10:03:11.811Z,10.53
2022-12-26T10:05:48.855Z,10.54
2022-12-26T10:08:28.721Z,10.55
2022-12-26T10:11:03.203Z,10.57
2022-12-26T10:13:37.997Z,10.57
2022-12-26T10:16:11.726Z,10.57
2022-12-26T10:18:55.100Z,10.58
2022-12-26T10:21:35.053Z,10.60
2022-12-26T10:24:09.861Z,10.61
2022-12-26T10:26:42.483Z,10.63
2022-12-26T10:29:23.120Z,10.64
2022-12-26T10:31:56.097Z,10.65
2022-12-26T10:34:27.538Z,10.66
2022-12-26T10:37:03.509Z,10.67
2022-12-26T10:39:46.706Z,10.68
2022-12-26T10:42:26.376Z,10.68
2022-12-26T10:44:55.144Z,10.68
2022-12-26T10:47:28.104Z,10.67
2022-12-26T10:49:59.975Z,10.67
2022-12-26T10:52:33.524Z,10.69
2022-12-26T10:55:28.118Z,10.70
2022-12-26T10:57:55.805Z,10.71
2022-12-26T11:00:27.366Z,10.74
2022-12-26T11:03:08.082Z,10.76
2022-12-26T11:06:06.377Z,10.77
2022-12-26T11:08:40.815Z,10.81
2022-12-26T11:11:15.940Z,10.84
2022-12-26T11:14:00.829Z,10.85
2022-12-26T11:16:33.727Z,10.87
2022-12-26T11:19:04.154Z,10.89
2022-12-26T11:21:34.824Z,10.91
2022-12-26T11:24:19.763Z,10.94
2022-12-26T11:26:48.095Z,10.92
2022-12-26T11:29:19.835Z,10.90
2022-12-26T11:31:55.119Z,10.91
2022-12-26T11:34:32.465Z,10.92
2022-12-26T11:37:02.472Z,10.91
2022-12-26T11:39:34.822Z,10.92
2022-12-26T11:42:11.554Z,10.93
2022-12-26T11:44:46.374Z,10.93
2022-12-26T11:47:18.002Z,10.94
2022-12-26T11:49:53.748Z,10.94
2022-12-26T12:01:23.311Z,10.91
2022-12-26T12:04:48.154Z,10.85
2022-12-26T12:11:55.480Z,10.63
2022-12-26T12:14:34.478Z,10.57
2022-12-26T12:17:23.184Z,10.52
2022-12-26T12:20:07.441Z,10.47
2022-12-26T12:23:08.141Z,10.44
2022-12-26T12:25:51.127Z,10.42
2022-12-26T12:28:48.136Z,10.41
2022-12-26T12:31:26.313Z,10.39
2022-12-26T12:34:05.293Z,10.37
2022-12-26T12:36:40.868Z,10.33
2022-12-26T12:39:17.563Z,10.31
2022-12-26T12:42:02.706Z,10.28
2022-12-26T12:44:54.050Z,10.26
2022-12-26T12:47:32.370Z,10.25
2022-12-26T12:50:14.786Z,10.22
2022-12-26T12:52:53.758Z,10.22
2022-12-26T12:55:37.882Z,10.19
2022-12-26T12:58:14.080Z,10.18
2022-12-26T13:00:46.295Z,10.14
2022-12-26T13:03:31.774Z,10.12
2022-12-26T13:06:07.714Z,10.10
2022-12-26T13:08:40.204Z,10.08
2022-12-26T13:11:14.228Z,10.01
2022-12-26T13:13:51.751Z,9.87
2022-12-26T13:16:26.690Z,9.68
2022-12-26T13:19:00.934Z,9.54
2022-12-26T13:21:35.860Z,9.41
2022-12-26T13:24:25.453Z,9.30
2022-12-26T13:27:01.257Z,9.18
2022-12-26T13:29:40.184Z,9.13
2022-12-26T13:32:19.418Z,9.06
2022-12-26T13:34:49.802Z,9.02
2022-12-26T13:37:58.987Z,8.99
2022-12-26T13:40:31.816Z,8.96
2022-12-26T13:43:21.831Z,8.94
2022-12-26T13:45:55.170Z,8.92
2022-12-26T13:48:58.685Z,8.90
2022-12-26T13:51:58.368Z,8.89
2022-12-26T13:54:30.055Z,8.87
2022-12-26T13:57:35.284Z,8.88
2022-12-26T14:00:19.919Z,8.89
2022-12-26T14:03:25.257Z,8.91
2022-12-26T14:06:14.327Z,8.90
2022-12-26T14:08:55.576Z,8.91
2022-12-26T14:11:43.922Z,8.91
2022-12-26T14:14:22.792Z,8.90
2022-12-26T14:17:05.199Z,8.91
2022-12-26T14:19:46.417Z,8.91
2022-12-26T14:22:23.685Z,8.90
2022-12-26T14:25:04.121Z,8.89
2022-12-26T14:27:45.709Z,8.86
2022-12-26T14:30:28.735Z,8.83
2022-12-26T14:33:16.035Z,8.77
2022-12-26T14:35:54.757Z,8.72
2022-12-26T14:38:34.490Z,8.70
2022-12-26T14:41:07.077Z,8.68
2022-12-26T14:43:41.265Z,8.64
2022-12-26T14:46:49.623Z,8.62
2022-12-26T14:49:22.862Z,8.58
2022-12-26T14:51:51.919Z,8.57
2022-12-26T14:54:43.051Z,8.55
2022-12-26T14:57:43.846Z,8.52
2022-12-26T15:00:32.686Z,8.49
2022-12-26T15:03:41.726Z,8.46
2022-12-26T15:06:49.376Z,8.43
2022-12-26T15:09:51.240Z,8.41
2022-12-26T15:12:56.812Z,8.39
2022-12-26T15:15:47.665Z,8.38
2022-12-26T15:18:47.083Z,8.37
2022-12-26T15:21:49.170Z,8.37
2022-12-26T15:28:32.119Z,8.33
2022-12-26T15:31:39.372Z,8.33
2022-12-26T15:34:42.504Z,8.32
2022-12-26T15:37:30.662Z,8.30
2022-12-26T15:40:12.682Z,8.28
2022-12-26T15:42:53.765Z,8.27
2022-12-26T15:45:33.273Z,8.23
2022-12-26T15:48:12.375Z,8.18
2022-12-26T15:50:55.076Z,8.14
2022-12-26T15:53:33.004Z,8.08
2022-12-26T15:56:43.798Z,8.03
2022-12-26T15:59:49.200Z,7.99
2022-12-26T16:02:34.501Z,7.95
2022-12-26T16:05:23.911Z,7.91
2022-12-26T16:08:02.018Z,7.85
2022-12-26T16:10:32.655Z,7.80
2022-12-26T16:13:08.127Z,7.74
2022-12-26T16:15:47.476Z,7.67
2022-12-26T16:18:18.509Z,7.64
2022-12-26T16:21:09.606Z,7.57
2022-12-26T16:23:41.234Z,7.54
2022-12-26T16:26:19.056Z,7.48
2022-12-26T16:28:48.631Z,7.44
2022-12-26T16:31:21.844Z,7.41
2022-12-26T16:33:53.218Z,7.38
2022-12-26T16:36:26.502Z,7.33
2022-12-26T16:38:56.322Z,7.29
2022-12-26T16:41:27.108Z,7.26
2022-12-26T16:43:58.261Z,7.21
2022-12-26T16:46:31.187Z,7.17
2022-12-26T16:49:02.231Z,7.12
2022-12-26T16:51:41.872Z,7.06
2022-12-26T16:54:25.615Z,7.03
2022-12-26T16:57:02.355Z,6.98
2022-12-26T16:59:46.185Z,6.94
2022-12-26T17:02:20.858Z,6.88
2022-12-26T17:04:58.675Z,6.85
2022-12-26T17:07:29.660Z,6.82
2022-12-26T17:10:01.859Z,6.81
2022-12-26T17:12:39.467Z,6.76
2022-12-26T17:15:10.781Z,6.73
2022-12-26T17:17:44.986Z,6.71
2022-12-26T17:20:36.679Z,6.66
2022-12-26T17:23:36.533Z,6.62
2022-12-26T17:26:21.629Z,6.59
2022-12-26T17:28:51.074Z,6.55
2022-12-26T17:31:29.237Z,6.53
2022-12-26T17:34:00.113Z,6.52
2022-12-26T17:37:08.722Z,6.51
2022-12-26T17:39:27.136Z,6.47
2022-12-26T17:41:58.186Z,6.45
2022-12-26T17:44:48.697Z,6.42
2022-12-26T17:47:23.195Z,6.40
2022-12-26T17:49:55.682Z,6.38
2022-12-26T17:52:28.710Z,6.36
2022-12-26T17:55:00.742Z,6.30
2022-12-26T17:57:31.241Z,6.22
2022-12-26T18:00:00.797Z,6.16
2022-12-26T18:02:29.885Z,6.13
2022-12-26T18:04:59.161Z,6.06
2022-12-26T18:07:31.340Z,6.04
2022-12-26T18:10:02.859Z,5.98
2022-12-26T18:12:31.565Z,5.92
2022-12-26T18:15:02.356Z,5.84
2022-12-26T18:17:35.054Z,5.76
2022-12-26T18:20:04.769Z,5.71
2022-12-26T18:22:33.749Z,5.68
2022-12-26T18:25:04.212Z,5.66
2022-12-26T18:27:34.994Z,5.64
2022-12-26T18:30:04.296Z,5.60
2022-12-26T18:32:35.564Z,5.56
2022-12-26T18:35:04.824Z,5.48
2022-12-26T18:37:34.166Z,5.47
2022-12-26T18:40:05.817Z,5.44
2022-12-26T18:42:35.152Z,5.40
2022-12-26T18:45:04.471Z,5.36
2022-12-26T18:47:33.329Z,5.35
2022-12-26T18:50:02.742Z,5.32
2022-12-26T18:52:31.641Z,5.31
2022-12-26T18:55:00.199Z,5.29
2022-12-26T18:57:30.204Z,5.27
2022-12-26T18:59:59.433Z,5.24
2022-12-26T19:02:28.216Z,5.23
2022-12-26T19:04:56.858Z,5.19
2022-12-26T19:07:25.726Z,5.16
2022-12-26T19:09:55.821Z,5.14
2022-12-26T19:12:25.316Z,5.12
2022-12-26T19:14:55.440Z,5.10
2022-12-26T19:17:24.128Z,5.07
2022-12-26T19:19:53.109Z,5.02
2022-12-26T19:22:21.759Z,4.98
2022-12-26T19:24:50.644Z,4.95
2022-12-26T19:27:19.618Z,4.94
2022-12-26T19:29:48.384Z,4.90
2022-12-26T19:32:18.647Z,4.87
2022-12-26T19:34:47.442Z,4.85
2022-12-26T19:37:16.104Z,4.83
2022-12-26T19:39:44.953Z,4.80
2022-12-26T19:42:13.593Z,4.80
2022-12-26T19:44:42.297Z,4.76
2022-12-26T19:47:13.002Z,4.74
2022-12-26T19:49:44.159Z,4.70
2022-12-26T19:52:13.112Z,4.68
2022-12-26T19:54:42.484Z,4.65
2022-12-26T19:57:11.771Z,4.63
2022-12-26T19:59:40.989Z,4.63
2022-12-26T20:02:13.453Z,4.60
2022-12-26T20:04:44.234Z,4.59
2022-12-26T20:07:13.241Z,4.59
2022-12-26T20:09:42.195Z,4.59
2022-12-26T20:12:11.027Z,4.58
2022-12-26T20:14:39.862Z,4.57
2022-12-26T20:17:09.564Z,4.57
2022-12-26T20:19:39.321Z,4.54
2022-12-26T20:22:09.591Z,4.52
2022-12-26T20:24:38.325Z,4.50
2022-12-26T20:27:07.391Z,4.48
2022-12-26T20:29:36.277Z,4.46
2022-12-26T20:32:05.464Z,4.45
2022-12-26T20:34:34.701Z,4.43
2022-12-26T20:37:04.054Z,4.42
2022-12-26T20:39:34.255Z,4.42
2022-12-26T20:42:03.177Z,4.40
2022-12-26T20:44:34.920Z,4.38
2022-12-26T20:47:03.629Z,4.38
2022-12-26T20:49:33.653Z,4.37
2022-12-26T20:52:03.041Z,4.35
2022-12-26T20:54:36.567Z,4.35
2022-12-26T20:57:05.949Z,4.32
2022-12-26T20:59:35.431Z,4.32
2022-12-26T21:02:04.851Z,4.30
2022-12-26T21:04:34.647Z,4.28
2022-12-26T21:07:04.050Z,4.28
2022-12-26T21:09:34.569Z,4.26
2022-12-26T21:12:03.972Z,4.25
2022-12-26T21:14:33.686Z,4.24
2022-12-26T21:17:03.436Z,4.23
2022-12-26T21:19:33.258Z,4.24
2022-12-26T21:22:01.995Z,4.25
2022-12-26T21:24:33.075Z,4.27
2022-12-26T21:27:04.340Z,4.31
2022-12-26T21:29:35.613Z,4.32
2022-12-26T21:32:05.883Z,4.35
2022-12-26T21:34:35.279Z,4.37
2022-12-26T21:37:21.572Z,4.38
2022-12-26T21:39:50.730Z,4.41
2022-12-26T21:42:20.753Z,4.43
2022-12-26T21:44:49.682Z,4.43
2022-12-26T21:47:18.688Z,4.45
2022-12-26T21:49:48.382Z,4.44
2022-12-26T21:52:17.368Z,4.45
2022-12-26T21:55:03.361Z,4.45
2022-12-26T21:57:35.346Z,4.45
2022-12-26T22:00:05.696Z,4.44
2022-12-26T22:02:54.855Z,4.43
2022-12-26T22:05:27.090Z,4.42
2022-12-26T22:07:57.551Z,4.40
2022-12-26T22:10:46.383Z,4.42
2022-12-26T22:13:16.645Z,4.40
2022-12-26T22:16:05.233Z,4.37
2022-12-26T22:18:37.303Z,4.35
2022-12-26T22:21:08.972Z,4.35
2022-12-26T22:23:38.542Z,4.34
2022-12-26T22:26:10.440Z,4.32
2022-12-26T22:28:40.822Z,4.30
2022-12-26T22:31:10.031Z,4.28
2022-12-26T22:33:38.707Z,4.26
2022-12-26T22:36:09.125Z,4.26
2022-12-26T22:38:38.901Z,4.25
2022-12-26T22:41:08.997Z,4.24
2022-12-26T22:43:38.927Z,4.22
2022-12-26T22:46:09.968Z,4.22
2022-12-26T22:48:38.934Z,4.20
2022-12-26T22:51:07.834Z,4.19
2022-12-26T22:53:36.336Z,4.17
2022-12-26T22:56:07.372Z,4.16
2022-12-26T22:58:37.390Z,4.15
2022-12-26T23:01:14.806Z,4.13
2022-12-26T23:03:44.587Z,4.11
2022-12-26T23:06:22.026Z,4.11
2022-12-26T23:08:53.218Z,4.09
2022-12-26T23:11:25.251Z,4.08
2022-12-26T23:13:56.516Z,4.08
2022-12-26T23:16:33.215Z,4.06
2022-12-26T23:19:23.957Z,4.07
2022-12-26T23:21:53.923Z,4.06
2022-12-26T23:24:25.300Z,4.06
2022-12-26T23:26:57.027Z,4.05
2022-12-26T23:29:49.040Z,4.05
2022-12-26T23:32:19.704Z,4.04
2022-12-26T23:34:48.929Z,4.04
2022-12-26T23:37:17.750Z,4.03
2022-12-26T23:39:46.263Z,4.03
2022-12-26T23:42:15.200Z,4.04
2022-12-26T23:44:44.118Z,4.05
2022-12-26T23:47:12.997Z,4.05
2022-12-26T23:49:43.884Z,4.06
2022-12-26T23:52:12.772Z,4.06
2022-12-26T23:54:42.343Z,4.07
2022-12-26T23:57:11.467Z,4.07
2022-12-26T23:59:40.038Z,4.09
